Dirección General De Aeronáutica Civil

Dirección Meteorológica de Chile - Servicios Climáticos

Informe General de Control de Calidad de la Estación

Listado de niveles de control de calidad para algunos parámetros
Estación Maquehue-UFRO (380033)
Fecha de Revisión de los datos :

Elementos

Registros Niveles de Control Total
Nivel 0 Nivel 1 Nivel 2 Nivel 3 Errores Porcentaje
01 Temperatura del Aire Seco 69.314 0 . 0 . 0 . 0 . 0 0.00 %
02 Temperatura de Rocío 69.342 0 . 0 . 0 . 0 . 0 0.00 %
03 Humedad Relativa del Aire 69.338 0 . 0 . 0 . 0 . 0 0.00 %
04 Temperatura Máxima PM 2.902 0 . 0 . 77 2.65 % 0 . 77 2.65 %
05 Temperatura Mínima AM 2.859 0 . 0 . 27 0.94 % 0 . 27 0.94 %
06 Viento a 10 m. de Altura 69.206 0 . 0 . 0 . 0 . 0 0.00 %
07 Agua Caida, Acumulada 6 Horas 11.565 0 . 0 . 0 . 0 . 0 0.00 %
08 Presión Atm. a Nivel de Estación (QFE) 69.338 0 . 0 . 0 . 0 . 0 0.00 %
09 Presión Atm. a Nivel Medio del Mar (QFF) 69.338 0 . 0 . 0 . 0 . 0 0.00 %
10 Presión Atm. Estándar OACI (QNH) 69.338 0 . 0 . 0 . 0 . 0 0.00 %

Totales

502.540 . 0.0000 % . 0.0000 % . 0.0207 % . 0.0000 % 104 0.0207 %

Detalle de Errores Encontrados

Nivel Fecha del Dato Descripción Información Error Fecha Ingreso
2 2018-12-06 00:00:00 Temperatura 24.4 del 05-12-2018 19:00, Mayor que la Máxima 23.9 06-12-2018 00:00 24.4 -- 23.9 2018-12-06 00:15:00
2 2019-11-24 00:00:00 Temperatura 19.0 del 23-11-2019 18:00, Mayor que la Máxima 17.4 24-11-2019 00:00 19.0 -- 17.4 2019-11-24 00:20:00
2 2020-02-04 00:00:00 Temperatura 21.3 del 03-02-2020 17:00, Mayor que la Máxima 14.9 04-02-2020 00:00 21.3 -- 14.9 2020-02-04 00:20:00
2 2020-02-29 00:00:00 Temperatura 25.9 del 28-02-2020 19:00, Mayor que la Máxima 23.3 29-02-2020 00:00 25.9 -- 23.3 2020-02-29 00:20:00
2 2020-03-14 00:00:00 Temperatura 21.2 del 13-03-2020 15:00, Mayor que la Máxima 20.5 14-03-2020 00:00 21.2 -- 20.5 2020-03-14 00:20:00
2 2020-04-26 00:00:00 Temperatura 18.4 del 25-04-2020 17:00, Mayor que la Máxima 16.8 26-04-2020 00:00 18.4 -- 16.8 2020-04-26 00:20:00
2 2020-06-16 00:00:00 Temperatura 14.2 del 15-06-2020 20:00, Mayor que la Máxima 13.8 16-06-2020 00:00 14.2 -- 13.8 2020-06-16 05:51:00
2 2020-06-20 00:00:00 Temperatura 12.7 del 19-06-2020 18:00, Mayor que la Máxima 10.5 20-06-2020 00:00 12.7 -- 10.5 2020-06-20 03:31:00
2 2020-06-21 00:00:00 Temperatura 10.9 del 20-06-2020 19:00, Mayor que la Máxima 8.3 21-06-2020 00:00 10.9 -- 8.3 2020-06-21 03:11:00
2 2020-06-22 00:00:00 Temperatura 10.9 del 21-06-2020 18:00, Mayor que la Máxima 9.7 22-06-2020 00:00 10.9 -- 9.7 2020-06-22 00:20:00
2 2020-06-25 00:00:00 Temperatura 7.7 del 24-06-2020 18:00, Mayor que la Máxima 6.7 25-06-2020 00:00 7.7 -- 6.7 2020-06-25 00:51:00
2 2020-06-26 00:00:00 Temperatura 10.0 del 25-06-2020 20:00, Mayor que la Máxima 5.7 26-06-2020 00:00 10.0 -- 5.7 2020-06-26 01:41:00
2 2020-06-27 00:00:00 Temperatura 8.5 del 26-06-2020 20:00, Mayor que la Máxima 7.7 27-06-2020 00:00 8.5 -- 7.7 2020-06-27 03:41:00
2 2020-06-30 00:00:00 Temperatura 9.9 del 29-06-2020 16:00, Mayor que la Máxima 9.0 30-06-2020 00:00 9.9 -- 9.0 2020-06-30 02:11:00
2 2020-07-02 00:00:00 Temperatura 12.9 del 01-07-2020 17:00, Mayor que la Máxima 9.8 02-07-2020 00:00 12.9 -- 9.8 2020-07-02 01:51:00
2 2020-07-06 00:00:00 Temperatura 10.2 del 05-07-2020 19:00, Mayor que la Máxima 6.0 06-07-2020 00:00 10.2 -- 6.0 2020-07-06 00:20:00
2 2020-07-08 00:00:00 Temperatura 8.2 del 07-07-2020 19:00, Mayor que la Máxima 7.8 08-07-2020 00:00 8.2 -- 7.8 2020-07-08 13:11:00
2 2020-07-11 00:00:00 Temperatura 9.8 del 10-07-2020 16:00, Mayor que la Máxima 8.8 11-07-2020 00:00 9.8 -- 8.8 2020-07-11 00:41:00
2 2020-07-16 00:00:00 Temperatura 14.0 del 15-07-2020 19:00, Mayor que la Máxima 12.2 16-07-2020 00:00 14.0 -- 12.2 2020-07-16 05:51:00
2 2020-07-21 00:00:00 Temperatura 10.8 del 20-07-2020 20:00, Mayor que la Máxima 9.6 21-07-2020 00:00 10.8 -- 9.6 2020-07-21 00:20:00
2 2020-07-25 00:00:00 Temperatura 10.5 del 24-07-2020 19:00, Mayor que la Máxima 8.1 25-07-2020 00:00 10.5 -- 8.1 2020-07-25 01:41:00
2 2020-07-27 00:00:00 Temperatura 12.2 del 26-07-2020 18:00, Mayor que la Máxima 8.2 27-07-2020 00:00 12.2 -- 8.2 2020-07-27 02:51:00
2 2020-07-31 00:00:00 Temperatura 10.7 del 30-07-2020 17:00, Mayor que la Máxima 10.6 31-07-2020 00:00 10.7 -- 10.6 2020-07-31 01:11:00
2 2020-08-01 00:00:00 Temperatura 12.0 del 31-07-2020 19:00, Mayor que la Máxima 11.8 01-08-2020 00:00 12.0 -- 11.8 2020-08-01 01:41:00
2 2020-08-06 00:00:00 Temperatura 11.2 del 05-08-2020 15:00, Mayor que la Máxima 10.6 06-08-2020 00:00 11.2 -- 10.6 2020-08-06 00:20:00
2 2020-08-07 00:00:00 Temperatura 11.6 del 06-08-2020 19:00, Mayor que la Máxima 7.7 07-08-2020 00:00 11.6 -- 7.7 2020-08-07 00:41:00
2 2020-08-08 00:00:00 Temperatura 11.4 del 07-08-2020 19:00, Mayor que la Máxima 6.7 08-08-2020 00:00 11.4 -- 6.7 2020-08-08 01:51:00
2 2020-08-10 00:00:00 Temperatura 11.8 del 09-08-2020 15:00, Mayor que la Máxima 11.6 10-08-2020 00:00 11.8 -- 11.6 2020-08-10 01:51:00
2 2020-10-04 00:00:00 Temperatura 17.1 del 03-10-2020 18:00, Mayor que la Máxima 15.9 04-10-2020 00:00 17.1 -- 15.9 2020-10-04 03:11:00
2 2020-10-05 00:00:00 Temperatura 14.9 del 04-10-2020 21:00, Mayor que la Máxima 11.3 05-10-2020 00:00 14.9 -- 11.3 2020-10-05 00:21:00
2 2020-10-06 00:00:00 Temperatura 12.3 del 05-10-2020 16:00, Mayor que la Máxima 11.2 06-10-2020 00:00 12.3 -- 11.2 2020-10-06 03:51:00
2 2020-10-15 00:00:00 Temperatura 20.4 del 14-10-2020 17:00, Mayor que la Máxima 13.2 15-10-2020 00:00 20.4 -- 13.2 2020-10-15 01:11:00
2 2020-10-17 00:00:00 Temperatura 22.0 del 16-10-2020 19:00, Mayor que la Máxima 17.5 17-10-2020 00:00 22.0 -- 17.5 2020-10-17 00:21:00
2 2020-10-19 00:00:00 Temperatura 17.0 del 18-10-2020 17:00, Mayor que la Máxima 16.5 19-10-2020 00:00 17.0 -- 16.5 2020-10-19 00:22:00
2 2020-10-20 00:00:00 Temperatura 16.3 del 19-10-2020 19:00, Mayor que la Máxima 13.9 20-10-2020 00:00 16.3 -- 13.9 2020-10-20 00:20:00
2 2020-10-21 00:00:00 Temperatura 17.7 del 20-10-2020 19:00, Mayor que la Máxima 12.4 21-10-2020 00:00 17.7 -- 12.4 2020-10-21 02:41:00
2 2020-10-23 00:00:00 Temperatura 20.2 del 22-10-2020 18:00, Mayor que la Máxima 19.4 23-10-2020 00:00 20.2 -- 19.4 2020-10-23 00:20:00
2 2020-10-24 00:00:00 Temperatura 19.5 del 23-10-2020 19:00, Mayor que la Máxima 13.3 24-10-2020 00:00 19.5 -- 13.3 2020-10-24 00:20:00
2 2020-10-26 00:00:00 Temperatura 14.8 del 25-10-2020 18:00, Mayor que la Máxima 12.5 26-10-2020 00:00 14.8 -- 12.5 2020-10-26 00:20:00
2 2020-10-31 00:00:00 Temperatura 24.7 del 30-10-2020 19:00, Mayor que la Máxima 21.4 31-10-2020 00:00 24.7 -- 21.4 2020-10-31 00:20:00
2 2020-11-03 00:00:00 Temperatura 15.3 del 02-11-2020 19:00, Mayor que la Máxima 11.7 03-11-2020 00:00 15.3 -- 11.7 2020-11-03 00:20:00
2 2020-11-04 00:00:00 Temperatura 21.1 del 03-11-2020 19:00, Mayor que la Máxima 15.1 04-11-2020 00:00 21.1 -- 15.1 2020-11-04 00:20:00
2 2020-11-05 00:00:00 Temperatura 16.8 del 04-11-2020 20:00, Mayor que la Máxima 16.2 05-11-2020 00:00 16.8 -- 16.2 2020-11-05 00:20:00
2 2020-11-06 00:00:00 Temperatura 18.1 del 05-11-2020 20:00, Mayor que la Máxima 13.2 06-11-2020 00:00 18.1 -- 13.2 2020-11-06 00:51:00
2 2020-11-27 00:00:00 Temperatura 19.4 del 26-11-2020 19:00, Mayor que la Máxima 19.0 27-11-2020 00:00 19.4 -- 19.0 2020-11-27 01:41:00
2 2020-12-01 00:00:00 Temperatura 20.8 del 30-11-2020 17:00, Mayor que la Máxima 19.9 01-12-2020 00:00 20.8 -- 19.9 2020-12-01 02:11:00
2 2020-12-06 00:00:00 Temperatura 25.3 del 05-12-2020 19:00, Mayor que la Máxima 23.0 06-12-2020 00:00 25.3 -- 23.0 2020-12-06 00:20:00
2 2020-12-08 00:00:00 Temperatura 21.3 del 07-12-2020 17:00, Mayor que la Máxima 15.1 08-12-2020 00:00 21.3 -- 15.1 2020-12-08 00:20:00
2 2020-12-09 00:00:00 Temperatura 20.7 del 08-12-2020 16:00, Mayor que la Máxima 18.3 09-12-2020 00:00 20.7 -- 18.3 2020-12-09 00:41:00
2 2020-12-10 00:00:00 Temperatura 22.9 del 09-12-2020 18:00, Mayor que la Máxima 22.5 10-12-2020 00:00 22.9 -- 22.5 2020-12-10 00:20:00
2 2020-12-11 00:00:00 Temperatura 17.6 del 10-12-2020 21:00, Mayor que la Máxima 13.5 11-12-2020 00:00 17.6 -- 13.5 2020-12-11 00:20:00
2 2020-12-12 00:00:00 Temperatura 17.2 del 11-12-2020 17:00, Mayor que la Máxima 15.3 12-12-2020 00:00 17.2 -- 15.3 2020-12-12 08:31:00
2 2021-02-28 00:00:00 Temperatura 22.7 del 27-02-2021 19:00, Mayor que la Máxima 17.1 28-02-2021 00:00 22.7 -- 17.1 2021-02-28 00:20:00
2 2021-04-16 00:00:00 Temperatura 17.7 del 15-04-2021 18:00, Mayor que la Máxima 15.7 16-04-2021 00:00 17.7 -- 15.7 2021-04-16 00:21:00
2 2021-05-06 00:00:00 Temperatura 18.9 del 05-05-2021 19:00, Mayor que la Máxima 9.7 06-05-2021 00:00 18.9 -- 9.7 2021-05-06 00:22:00
2 2021-08-21 00:00:00 Temperatura 11.3 del 20-08-2021 17:00, Mayor que la Máxima 8.5 21-08-2021 00:00 11.3 -- 8.5 2021-08-21 00:21:00
2 2021-09-05 00:00:00 Temperatura 15.1 del 04-09-2021 19:00, Mayor que la Máxima 14.5 05-09-2021 00:00 15.1 -- 14.5 2021-09-05 00:20:00
2 2021-10-11 00:00:00 Temperatura 12.5 del 10-10-2021 17:00, Mayor que la Máxima 11.2 11-10-2021 00:00 12.5 -- 11.2 2021-10-11 00:20:00
2 2021-11-25 00:00:00 Temperatura 16.4 del 24-11-2021 17:00, Mayor que la Máxima 15.0 25-11-2021 00:00 16.4 -- 15.0 2021-11-25 00:20:00
2 2021-12-01 00:00:00 Temperatura 21.8 del 30-11-2021 18:00, Mayor que la Máxima 17.3 01-12-2021 00:00 21.8 -- 17.3 2021-12-01 00:20:00
2 2021-12-14 00:00:00 Temperatura 19.0 del 13-12-2021 20:00, Mayor que la Máxima 17.7 14-12-2021 00:00 19.0 -- 17.7 2021-12-14 00:20:00
2 2023-02-13 00:00:00 Temperatura 22.7 del 12-02-2023 18:00, Mayor que la Máxima 20.2 13-02-2023 00:00 22.7 -- 20.2 2023-02-13 00:09:00
2 2023-03-11 00:00:00 Temperatura 27.3 del 10-03-2023 20:00, Mayor que la Máxima 17.2 11-03-2023 00:00 27.3 -- 17.2 2023-03-11 00:09:00
2 2023-03-22 00:00:00 Temperatura 24.1 del 21-03-2023 20:00, Mayor que la Máxima 23.7 22-03-2023 00:00 24.1 -- 23.7 2023-03-22 00:21:00
2 2023-04-01 00:00:00 Temperatura 24.5 del 31-03-2023 20:00, Mayor que la Máxima 18.0 01-04-2023 00:00 24.5 -- 18.0 2023-04-01 01:51:00
2 2023-04-02 00:00:00 Temperatura 18.6 del 01-04-2023 21:00, Mayor que la Máxima 17.4 02-04-2023 00:00 18.6 -- 17.4 2023-04-02 00:51:00
2 2023-04-03 00:00:00 Temperatura 18.4 del 02-04-2023 20:00, Mayor que la Máxima 17.1 03-04-2023 00:00 18.4 -- 17.1 2023-04-03 00:09:00
2 2023-05-03 00:00:00 Temperatura 14.7 del 02-05-2023 20:00, Mayor que la Máxima 9.5 03-05-2023 00:00 14.7 -- 9.5 2023-05-03 00:09:00
2 2023-05-09 00:00:00 Temperatura 13.0 del 08-05-2023 20:00, Mayor que la Máxima 10.1 09-05-2023 00:00 13.0 -- 10.1 2023-05-09 01:09:00
2 2023-05-12 00:00:00 Temperatura 18.5 del 11-05-2023 20:00, Mayor que la Máxima 17.9 12-05-2023 00:00 18.5 -- 17.9 2023-05-12 00:09:00
2 2023-05-29 00:00:00 Temperatura 8.3 del 28-05-2023 19:00, Mayor que la Máxima 5.5 29-05-2023 00:00 8.3 -- 5.5 2023-05-29 00:36:00
2 2023-06-20 00:00:00 Temperatura 7.8 del 19-06-2023 20:00, Mayor que la Máxima 6.7 20-06-2023 00:00 7.8 -- 6.7 2023-06-20 00:09:00
2 2023-06-27 00:00:00 Temperatura 12.8 del 26-06-2023 19:00, Mayor que la Máxima 9.8 27-06-2023 00:00 12.8 -- 9.8 2023-06-27 00:09:00
2 2023-07-03 00:00:00 Temperatura 14.7 del 02-07-2023 18:00, Mayor que la Máxima 11.7 03-07-2023 00:00 14.7 -- 11.7 2023-07-03 00:09:00
2 2023-08-09 00:00:00 Temperatura 13.1 del 08-08-2023 19:00, Mayor que la Máxima 10.5 09-08-2023 00:00 13.1 -- 10.5 2023-08-09 14:55:00
2 2023-08-10 00:00:00 Temperatura 14.2 del 09-08-2023 18:00, Mayor que la Máxima 12.1 10-08-2023 00:00 14.2 -- 12.1 2023-08-10 00:10:00
2 2023-09-23 00:00:00 Temperatura 12.2 del 22-09-2023 15:00, Mayor que la Máxima 11.1 23-09-2023 00:00 12.2 -- 11.1 2023-09-23 00:50:00
2 2020-01-02 12:00:00 Temperatura 11.5 del 02-01-2020 04:00, Menor que la Mínima 12.0 02-01-2020 12:00 11.5 -- 12.0 2020-01-02 12:20:00
2 2020-01-08 12:00:00 Temperatura 11.5 del 08-01-2020 10:00, Menor que la Mínima 11.9 08-01-2020 12:00 11.5 -- 11.9 2020-01-08 12:20:00
2 2020-06-23 12:00:00 Temperatura 5.6 del 23-06-2020 01:00, Menor que la Mínima 6.1 23-06-2020 12:00 5.6 -- 6.1 2020-06-23 13:41:00
2 2020-06-26 12:00:00 Temperatura 1.5 del 26-06-2020 03:00, Menor que la Mínima 5.6 26-06-2020 12:00 1.5 -- 5.6 2020-06-26 12:51:00
2 2020-07-07 12:00:00 Temperatura -1.2 del 07-07-2020 04:00, Menor que la Mínima -0.8 07-07-2020 12:00 -1.2 -- -0.8 2020-07-07 12:20:00
2 2020-07-09 12:00:00 Temperatura 6.1 del 09-07-2020 01:00, Menor que la Mínima 6.7 09-07-2020 12:00 6.1 -- 6.7 2020-07-09 13:41:00
2 2020-07-20 12:00:00 Temperatura 7.0 del 20-07-2020 06:00, Menor que la Mínima 7.1 20-07-2020 12:00 7.0 -- 7.1 2020-07-20 12:20:00
2 2020-07-30 12:00:00 Temperatura 0.6 del 30-07-2020 07:00, Menor que la Mínima 0.8 30-07-2020 12:00 0.6 -- 0.8 2020-07-30 12:20:00
2 2020-08-03 12:00:00 Temperatura 6.3 del 03-08-2020 09:00, Menor que la Mínima 9.4 03-08-2020 12:00 6.3 -- 9.4 2020-08-03 15:51:00
2 2020-10-04 12:00:00 Temperatura 3.4 del 04-10-2020 06:00, Menor que la Mínima 3.5 04-10-2020 12:00 3.4 -- 3.5 2020-10-04 12:41:00
2 2020-10-24 12:00:00 Temperatura 8.5 del 24-10-2020 03:00, Menor que la Mínima 8.8 24-10-2020 12:00 8.5 -- 8.8 2020-10-24 12:20:00
2 2020-10-25 12:00:00 Temperatura 2.9 del 25-10-2020 07:00, Menor que la Mínima 5.4 25-10-2020 12:00 2.9 -- 5.4 2020-10-25 14:41:00
2 2020-11-03 12:00:00 Temperatura 9.3 del 03-11-2020 09:00, Menor que la Mínima 9.4 03-11-2020 12:00 9.3 -- 9.4 2020-11-03 12:20:00
2 2020-11-22 12:00:00 Temperatura 7.5 del 22-11-2020 08:00, Menor que la Mínima 7.8 22-11-2020 12:00 7.5 -- 7.8 2020-11-22 12:20:00
2 2020-11-23 12:00:00 Temperatura 7.7 del 23-11-2020 04:00, Menor que la Mínima 11.1 23-11-2020 12:00 7.7 -- 11.1 2020-11-23 12:41:00
2 2020-11-24 12:00:00 Temperatura 4.6 del 24-11-2020 09:00, Menor que la Mínima 6.8 24-11-2020 12:00 4.6 -- 6.8 2020-11-24 12:20:00
2 2020-11-25 12:00:00 Temperatura 8.8 del 25-11-2020 08:00, Menor que la Mínima 9.7 25-11-2020 12:00 8.8 -- 9.7 2020-11-25 15:11:00
2 2020-11-26 12:00:00 Temperatura 1.2 del 26-11-2020 09:00, Menor que la Mínima 1.3 26-11-2020 12:00 1.2 -- 1.3 2020-11-26 12:20:00
2 2020-12-02 12:00:00 Temperatura 7.7 del 02-12-2020 03:00, Menor que la Mínima 9.2 02-12-2020 12:00 7.7 -- 9.2 2020-12-02 12:20:00
2 2020-12-06 12:00:00 Temperatura 10.4 del 06-12-2020 07:00, Menor que la Mínima 10.5 06-12-2020 12:00 10.4 -- 10.5 2020-12-07 01:41:00
2 2023-01-03 12:00:00 Temperatura 6.8 del 03-01-2023 08:00, Menor que la Mínima 9.4 03-01-2023 12:00 6.8 -- 9.4 2023-01-03 12:36:00
2 2023-02-08 12:00:00 Temperatura 9.8 del 08-02-2023 06:00, Menor que la Mínima 10.5 08-02-2023 12:00 9.8 -- 10.5 2023-02-08 12:08:00
2 2023-02-10 12:00:00 Temperatura 16.4 del 10-02-2023 04:00, Menor que la Mínima 18.9 10-02-2023 12:00 16.4 -- 18.9 2023-02-10 12:36:00
2 2023-03-27 12:00:00 Temperatura 6.2 del 27-03-2023 05:00, Menor que la Mínima 8.7 27-03-2023 12:00 6.2 -- 8.7 2023-03-27 12:51:00
2 2023-04-18 12:00:00 Temperatura 7.8 del 18-04-2023 02:00, Menor que la Mínima 8.1 18-04-2023 12:00 7.8 -- 8.1 2023-04-18 12:36:00
2 2023-06-07 12:00:00 Temperatura 1.5 del 07-06-2023 07:00, Menor que la Mínima 2.5 07-06-2023 12:00 1.5 -- 2.5 2023-06-07 12:09:00
2 2023-07-31 12:00:00 Temperatura 6.3 del 31-07-2023 12:00, Menor que la Mínima 9.4 31-07-2023 12:00 6.3 -- 9.4 2023-07-31 12:36:00
Errores del Nivel 104
Informe generado el 17-07-2024 12:23
Requerimiento: RE6001